»·PEaware :: ASA2510 KBOI-KPDX

ASA2510 :: KBOI-KPDX

FLIGHT INFORMATION

Flight Status: Arrived
Operator:
Alaska Airlines
More flights by this operator :: More flights under this callsign
Pilot: Mike H. (17104)
Aircraft: AIRBUS A320
(A320)
More flights by this aircraft type
Origin: KBOI Boise Air Terminal/Gowen
United States
Destination: KPDX Portland Intl
United States
More flights between these airports :: More routes between these airports
Route: BOI SAILL BUEEL IMB RABBI HHOOD4
File this flight plan on PilotEdge
Remarks:
Altitude:
(Current/Filed)
320ft
Speed:
(Current/Filed)
450kts
Departed: 25-Mar-18 05:02 AM
Arrived: 25-Mar-18 06:05 AM
Distance/Time
Traveled:
298nm/1:03
Distance/Time
To Go:
Arrived

Flight Plot

Page will automatically refresh every two minutes.

Flight plan parsing failed; only flown route is shown


Map Options




Map Legend


Flown Route
Filed Route
Departure Airport
Arrival Airport
Navaid (VOR, NDB)
Fix

Horizontal Profiles

Position Reports

Time Latitude Longitude Heading Altitude Ground
Speed
25-Mar-18 04:40 43.567410 -116.221129 29 2885ft 0kts
25-Mar-18 04:41 43.567410 -116.221129 29 2885ft 0kts
25-Mar-18 04:42 43.567410 -116.221129 29 2885ft 0kts
25-Mar-18 04:43 43.567410 -116.221129 29 2885ft 0kts
25-Mar-18 04:44 43.567410 -116.221129 29 2885ft 0kts
25-Mar-18 04:45 43.567410 -116.221129 29 2885ft 0kts
25-Mar-18 04:46 43.567410 -116.221129 29 2885ft 0kts
25-Mar-18 04:47 43.567410 -116.221129 29 2885ft 0kts
25-Mar-18 04:48 43.567410 -116.221129 29 2885ft 0kts
25-Mar-18 04:49 43.567410 -116.221129 29 2885ft 0kts
25-Mar-18 04:50 43.567410 -116.221129 29 2885ft 0kts
25-Mar-18 04:51 43.567044 -116.221640 68 2885ft 2kts
25-Mar-18 04:52 43.566983 -116.222020 80 2885ft 0kts
25-Mar-18 04:53 43.566983 -116.222019 80 2885ft 0kts
25-Mar-18 04:54 43.566983 -116.222019 80 2885ft 0kts
25-Mar-18 04:55 43.566984 -116.222007 80 2885ft 0kts
25-Mar-18 04:56 43.566049 -116.220643 150 2885ft 11kts
25-Mar-18 04:57 43.563867 -116.214567 116 2885ft 21kts
25-Mar-18 04:58 43.561450 -116.207574 113 2885ft 21kts
25-Mar-18 04:59 43.559119 -116.202864 204 2885ft 8kts
25-Mar-18 05:00 43.558881 -116.203770 294 2885ft 0kts
25-Mar-18 05:01 43.569801 -116.235684 295 3384ft 168kts
25-Mar-18 05:02 43.584282 -116.300017 294 5574ft 189kts
25-Mar-18 05:03 43.611689 -116.373357 293 6140ft 242kts
25-Mar-18 05:04 43.630116 -116.470900 279 8215ft 271kts
25-Mar-18 05:05 43.646033 -116.575664 280 10771ft 298kts
25-Mar-18 05:06 43.664289 -116.699191 280 12270ft 351kts
25-Mar-18 05:07 43.683963 -116.832891 279 14854ft 358kts
25-Mar-18 05:08 43.703891 -116.969057 278 17061ft 366kts
25-Mar-18 05:09 43.725130 -117.108269 285 19030ft 377kts
25-Mar-18 05:10 43.767901 -117.244029 290 20759ft 390kts
25-Mar-18 05:11 43.811421 -117.383497 289 22308ft 400kts
25-Mar-18 05:12 43.856305 -117.527016 289 23711ft 410kts
25-Mar-18 05:13 43.909648 -117.669024 298 25030ft 422kts
25-Mar-18 05:14 43.972003 -117.808372 298 26297ft 428kts
25-Mar-18 05:15 44.034837 -117.950902 298 27472ft 435kts
25-Mar-18 05:16 44.098123 -118.095122 297 28662ft 438kts
25-Mar-18 05:17 44.160774 -118.238552 297 30191ft 431kts
25-Mar-18 05:18 44.222750 -118.381123 297 31492ft 427kts
25-Mar-18 05:19 44.284067 -118.522804 298 31966ft 427kts
25-Mar-18 05:20 44.345092 -118.664608 298 31963ft 426kts
25-Mar-18 05:21 44.406144 -118.807059 299 31972ft 426kts
25-Mar-18 05:22 44.466504 -118.948930 299 31986ft 426kts
25-Mar-18 05:23 44.527429 -119.092516 299 32008ft 426kts
25-Mar-18 05:24 44.587699 -119.235390 299 32002ft 426kts
25-Mar-18 05:25 44.647660 -119.378275 300 31983ft 425kts
25-Mar-18 05:26 44.707693 -119.521917 300 31947ft 425kts
25-Mar-18 05:27 44.738868 -119.596756 300 31949ft 425kts
25-Mar-18 05:28 44.786608 -119.712200 300 31958ft 425kts
25-Mar-18 05:29 44.846207 -119.856134 300 32029ft 424kts
25-Mar-18 05:30 44.904918 -119.999362 300 32061ft 425kts
25-Mar-18 05:31 44.963978 -120.143995 301 32072ft 422kts
25-Mar-18 05:32 45.022354 -120.287549 301 32022ft 419kts
25-Mar-18 05:33 45.080236 -120.430768 301 31992ft 421kts
25-Mar-18 05:34 45.099053 -120.477461 302 32002ft 421kts
25-Mar-18 05:35 45.156708 -120.620994 302 30538ft 416kts
25-Mar-18 05:36 45.187825 -120.698696 302 28998ft 413kts
25-Mar-18 05:37 45.233990 -120.814700 301 27343ft 390kts
25-Mar-18 05:38 45.285882 -120.945294 300 25270ft 370kts
25-Mar-18 05:39 45.335584 -121.071085 299 23323ft 361kts
25-Mar-18 05:40 45.383957 -121.194263 299 21446ft 351kts
25-Mar-18 05:41 45.431135 -121.314581 298 19600ft 346kts
25-Mar-18 05:42 45.474630 -121.434875 285 17909ft 338kts
25-Mar-18 05:43 45.499504 -121.562891 284 16314ft 331kts
25-Mar-18 05:44 45.524179 -121.687921 284 14977ft 317kts
25-Mar-18 05:45 45.532873 -121.805126 271 14051ft 289kts
25-Mar-18 05:46 45.536699 -121.918215 272 12849ft 281kts
25-Mar-18 05:47 45.552066 -122.024985 287 11706ft 271kts
25-Mar-18 05:48 45.573328 -122.126242 285 10604ft 260kts
25-Mar-18 05:49 45.594158 -122.226281 285 9976ft 273kts
25-Mar-18 05:50 45.615610 -122.330067 285 9987ft 273kts
25-Mar-18 05:51 45.637059 -122.434312 285 8657ft 273kts
25-Mar-18 05:52 45.667706 -122.531660 297 6943ft 265kts
25-Mar-18 05:53 45.698237 -122.615619 296 6334ft 215kts
25-Mar-18 05:54 45.725460 -122.690567 296 5181ft 200kts
25-Mar-18 05:55 45.750572 -122.760198 296 3995ft 195kts
25-Mar-18 05:56 45.766062 -122.831015 239 3002ft 187kts
25-Mar-18 05:57 45.725293 -122.851939 186 3094ft 194kts
25-Mar-18 05:58 45.674753 -122.826511 119 3114ft 176kts
25-Mar-18 05:59 45.653706 -122.772107 119 2397ft 145kts
25-Mar-18 06:00 45.632287 -122.717002 118 1558ft 160kts
25-Mar-18 06:01 45.615417 -122.673641 118 806ft 136kts
25-Mar-18 06:02 45.593569 -122.617626 116 66ft 141kts
25-Mar-18 06:03 45.582324 -122.588659 119 44ft 45kts
25-Mar-18 06:04 45.581310 -122.583753 27 44ft 0kts
25-Mar-18 06:05 45.581862 -122.583975 297 44ft 7kts
25-Mar-18 06:06 45.583520 -122.588383 299 44ft 17kts
25-Mar-18 06:07 45.585796 -122.591891 53 44ft 4kts
25-Mar-18 06:08 45.585944 -122.591613 50 44ft 0kts
25-Mar-18 06:09 45.585944 -122.591613 50 44ft 0kts
25-Mar-18 06:10 45.585944 -122.591613 50 44ft 0kts

Navigation Log

Ident Type
Flight plan parsing failed, navigation log unavailable